Rio Blanco — D5BO9 — position and weather

sailwx.info

Track history (hours):
 
Tides and Currents Weather Stations Pressure Air Temp Water Temp Dewpoint Dewpoint Depression Visibility Wind Speed Wind Dir Waves Ship Positions

Rio Blanco

Last reported at 2016-Sep-27 14:34 UTC. Time now 2016-Sep-27 15:30 UTC.
Position N 53°32' E 009°55'.

Length 286 m; draft 9 m.

Type: Ship (hazmat cat A). MMSI: 636092395.

Date/timePositionNaut miles runAvg speedWind from/ knotsBaromVisibWave heightAir tempDewpointWater temp
2016-Sep-27 14:34N 53°32' E 009°55'0 0.0
2016-Sep-27 13:34N 53°32' E 009°55'0 0.0
2016-Sep-27 10:34N 53°32' E 009°55'0 0.0
2016-Sep-27 00:34N 53°32' E 009°55'35 8.8
2016-Sep-26 20:33N 53°53' E 009°06'1413.6
2016-Sep-26 19:33N 53°53' E 008°43'6014.9
2016-Sep-26 15:33N 53°51' E 007°01'4221.0
2016-Sep-26 13:33N 53°40' E 005°53'4220.9
2016-Sep-26 11:33N 53°25' E 004°47'5919.6
2016-Sep-26 08:33N 52°36' E 003°52'7612.8
2016-Sep-26 02:34N 51°27' E 002°60'1414.1
2016-Sep-26 01:33N 51°25' E 003°22'1312.5
2016-Sep-26 00:34N 51°26' E 003°42'23 7.5
2016-Sep-25 21:33N 51°18' E 004°16'0 0.0
2016-Sep-25 17:30N 51°18' E 004°16'0 0.0
2016-Sep-25 16:33N 51°18' E 004°16'0 0.0
2016-Sep-25 15:33N 51°18' E 004°16'0 0.0
2016-Sep-25 14:33N 51°18' E 004°16'0 0.0
2016-Sep-25 12:33N 51°18' E 004°16'0 0.0
2016-Sep-25 11:33N 51°18' E 004°16'0 0.0
2016-Sep-25 10:33N 51°18' E 004°16'0 0.0
2016-Sep-25 09:33N 51°18' E 004°16'0 0.0
2016-Sep-25 07:33N 51°18' E 004°16'0 0.0
2016-Sep-25 04:33N 51°18' E 004°16'14 3.5
2016-Sep-25 00:34N 51°22' E 003°54'2110.7
2016-Sep-24 22:33N 51°24' E 003°20'1514.5
2016-Sep-24 21:33N 51°23' E 002°57'2010.2
2016-Sep-24 19:33N 51°20' E 002°24'9 8.7
2016-Sep-24 18:33N 51°19' E 002°11'1515.3
2016-Sep-24 17:33N 51°31' E 001°55'1918.7
2016-Sep-24 16:33N 51°48' E 001°43'18 9.1
2016-Sep-24 14:33N 51°58' E 001°18'0 0.0
2016-Sep-24 12:31N 51°58' E 001°18'0 0.0
2016-Sep-24 10:31N 51°58' E 001°18'0 0.0
2016-Sep-24 09:31N 51°58' E 001°18'0 0.0
2016-Sep-24 03:31N 51°58' E 001°18'0 0.0
2016-Sep-24 02:31N 51°58' E 001°18'0 0.0
2016-Sep-24 01:31N 51°58' E 001°18'0 0.0
2016-Sep-24 00:31N 51°58' E 001°18'0 0.0
2016-Sep-23 19:33N 51°58' E 001°18'0 0.0
2016-Sep-23 17:33N 51°58' E 001°18'0 0.0
2016-Sep-23 16:33N 51°58' E 001°18'0 0.0
2016-Sep-23 15:33N 51°58' E 001°18'11 5.6
2016-Sep-23 13:34N 51°52' E 001°34'5 1.2
2016-Sep-23 09:32N 51°53' E 001°41'0 0.0
2016-Sep-23 06:32N 51°53' E 001°41'0 0.0
2016-Sep-23 04:32N 51°53' E 001°41'0 0.1
2016-Sep-23 03:32N 51°53' E 001°41'0 0.1
2016-Sep-23 02:32N 51°53' E 001°41'0 0.0
2016-Sep-23 01:32N 51°53' E 001°41'0 0.0
2016-Sep-23 00:32N 51°53' E 001°41'0 0.0
2016-Sep-22 23:32N 51°53' E 001°41'6 2.3
2016-Sep-22 21:00N 51°48' E 001°36'613.6 230 / 191019.910.8 19.313.519.0
2016-Sep-22 20:32N 51°53' E 001°41'152 9.4
2016-Sep-22 04:17N 50°08' W 001°13'910.7
2016-Sep-22 03:29N 50°05' W 001°26'4813.8
2016-Sep-22 00:00N 49°48' W 002°36'715.2 230 / 111018.210.8 0.515.410.817.0
2016-Sep-21 23:33N 49°50' W 002°46'1414.3
2016-Sep-21 22:33N 49°47' W 003°07'8714.1
2016-Sep-21 16:25N 49°02' W 005°01'10914.7
2016-Sep-21 09:00N 47°30' W 006°30'21718.0 230 / 81017.210.8 20.9 9.218.0
2016-Sep-20 21:00N 44°18' W 008°54'21417.8 320 / 161019.010.8 20.411.619.0
2016-Sep-20 09:00N 40°48' W 009°48'10816.8 360 / 261016.310.8 1.520.312.819.0
2016-Sep-20 02:33N 39°00' W 009°52'5418.1
2016-Sep-19 23:33N 38°07' W 009°41'7218.0
2016-Sep-19 19:33N 36°56' W 009°20'1717.3
2016-Sep-19 18:33N 36°43' W 009°06'3718.5
2016-Sep-19 16:33N 36°33' W 008°22'3819.2
2016-Sep-19 14:34N 36°20' W 007°37'1919.4
2016-Sep-19 13:33N 36°14' W 007°14'1919.3
2016-Sep-19 12:33N 36°07' W 006°52'5718.1
2016-Sep-19 09:25N 35°58' W 005°43'17 8.9
2016-Sep-19 07:32N 36°08' W 005°26'0 0.0
2016-Sep-19 06:29N 36°08' W 005°26'0 0.0
2016-Sep-18 19:32N 36°08' W 005°26'8411.2
2016-Sep-18 12:00N 36°06' W 003°42'16417.4 090 / 71018.610.8 0.524.020.122.0
2016-Sep-18 02:33N 36°40' W 000°22'4919.0
2016-Sep-18 00:00N 36°54' E 000°36'5317.7 050 / 101017.610.8 0.523.016.525.0
2016-Sep-17 21:00N 37°00' E 001°42'   040 / 71018.910.8 23.915.725.0
Track history (hours):
 
Tides and Currents Weather Stations Pressure Air Temp Water Temp Dewpoint Dewpoint Depression Visibility Wind Speed Wind Dir Waves Ship Positions

Rio Blanco

Last reported at 2016-Sep-27 14:34 UTC. Time now 2016-Sep-27 15:30 UTC.
Position N 53°32' E 009°55'.

Length 286 m; draft 9 m.

Type: Ship (hazmat cat A). MMSI: 636092395.

Date/timePositionNaut miles runAvg speedWind from/ knotsBaromVisibWave heightAir tempDewpointWater temp
2016-Sep-27 14:34N 53°32' E 009°55'0 0.0
2016-Sep-27 13:34N 53°32' E 009°55'0 0.0
2016-Sep-27 10:34N 53°32' E 009°55'0 0.0
2016-Sep-27 00:34N 53°32' E 009°55'35 8.8
2016-Sep-26 20:33N 53°53' E 009°06'1413.6
2016-Sep-26 19:33N 53°53' E 008°43'6014.9
2016-Sep-26 15:33N 53°51' E 007°01'4221.0
2016-Sep-26 13:33N 53°40' E 005°53'4220.9
2016-Sep-26 11:33N 53°25' E 004°47'5919.6
2016-Sep-26 08:33N 52°36' E 003°52'7612.8
2016-Sep-26 02:34N 51°27' E 002°60'1414.1
2016-Sep-26 01:33N 51°25' E 003°22'1312.5
2016-Sep-26 00:34N 51°26' E 003°42'23 7.5
2016-Sep-25 21:33N 51°18' E 004°16'0 0.0
2016-Sep-25 17:30N 51°18' E 004°16'0 0.0
2016-Sep-25 16:33N 51°18' E 004°16'0 0.0
2016-Sep-25 15:33N 51°18' E 004°16'0 0.0
2016-Sep-25 14:33N 51°18' E 004°16'0 0.0
2016-Sep-25 12:33N 51°18' E 004°16'0 0.0
2016-Sep-25 11:33N 51°18' E 004°16'0 0.0
2016-Sep-25 10:33N 51°18' E 004°16'0 0.0
2016-Sep-25 09:33N 51°18' E 004°16'0 0.0
2016-Sep-25 07:33N 51°18' E 004°16'0 0.0
2016-Sep-25 04:33N 51°18' E 004°16'14 3.5
2016-Sep-25 00:34N 51°22' E 003°54'2110.7
2016-Sep-24 22:33N 51°24' E 003°20'1514.5
2016-Sep-24 21:33N 51°23' E 002°57'2010.2
2016-Sep-24 19:33N 51°20' E 002°24'9 8.7
2016-Sep-24 18:33N 51°19' E 002°11'1515.3
2016-Sep-24 17:33N 51°31' E 001°55'1918.7
2016-Sep-24 16:33N 51°48' E 001°43'18 9.1
2016-Sep-24 14:33N 51°58' E 001°18'0 0.0
2016-Sep-24 12:31N 51°58' E 001°18'0 0.0
2016-Sep-24 10:31N 51°58' E 001°18'0 0.0
2016-Sep-24 09:31N 51°58' E 001°18'0 0.0
2016-Sep-24 03:31N 51°58' E 001°18'0 0.0
2016-Sep-24 02:31N 51°58' E 001°18'0 0.0
2016-Sep-24 01:31N 51°58' E 001°18'0 0.0
2016-Sep-24 00:31N 51°58' E 001°18'0 0.0
2016-Sep-23 19:33N 51°58' E 001°18'0 0.0
2016-Sep-23 17:33N 51°58' E 001°18'0 0.0
2016-Sep-23 16:33N 51°58' E 001°18'0 0.0
2016-Sep-23 15:33N 51°58' E 001°18'11 5.6
2016-Sep-23 13:34N 51°52' E 001°34'5 1.2
2016-Sep-23 09:32N 51°53' E 001°41'0 0.0
2016-Sep-23 06:32N 51°53' E 001°41'0 0.0
2016-Sep-23 04:32N 51°53' E 001°41'0 0.1
2016-Sep-23 03:32N 51°53' E 001°41'0 0.1
2016-Sep-23 02:32N 51°53' E 001°41'0 0.0
2016-Sep-23 01:32N 51°53' E 001°41'0 0.0
2016-Sep-23 00:32N 51°53' E 001°41'0 0.0
2016-Sep-22 23:32N 51°53' E 001°41'6 2.3
2016-Sep-22 21:00N 51°48' E 001°36'613.6 230 / 191019.910.8 19.313.519.0
2016-Sep-22 20:32N 51°53' E 001°41'152 9.4
2016-Sep-22 04:17N 50°08' W 001°13'910.7
2016-Sep-22 03:29N 50°05' W 001°26'4813.8
2016-Sep-22 00:00N 49°48' W 002°36'715.2 230 / 111018.210.8 0.515.410.817.0
2016-Sep-21 23:33N 49°50' W 002°46'1414.3
2016-Sep-21 22:33N 49°47' W 003°07'8714.1
2016-Sep-21 16:25N 49°02' W 005°01'10914.7
2016-Sep-21 09:00N 47°30' W 006°30'21718.0 230 / 81017.210.8 20.9 9.218.0
2016-Sep-20 21:00N 44°18' W 008°54'21417.8 320 / 161019.010.8 20.411.619.0
2016-Sep-20 09:00N 40°48' W 009°48'10816.8 360 / 261016.310.8 1.520.312.819.0
2016-Sep-20 02:33N 39°00' W 009°52'5418.1
2016-Sep-19 23:33N 38°07' W 009°41'7218.0
2016-Sep-19 19:33N 36°56' W 009°20'1717.3
2016-Sep-19 18:33N 36°43' W 009°06'3718.5
2016-Sep-19 16:33N 36°33' W 008°22'3819.2
2016-Sep-19 14:34N 36°20' W 007°37'1919.4
2016-Sep-19 13:33N 36°14' W 007°14'1919.3
2016-Sep-19 12:33N 36°07' W 006°52'5718.1
2016-Sep-19 09:25N 35°58' W 005°43'17 8.9
2016-Sep-19 07:32N 36°08' W 005°26'0 0.0
2016-Sep-19 06:29N 36°08' W 005°26'0 0.0
2016-Sep-18 19:32N 36°08' W 005°26'8411.2
2016-Sep-18 12:00N 36°06' W 003°42'16417.4 090 / 71018.610.8 0.524.020.122.0
2016-Sep-18 02:33N 36°40' W 000°22'4919.0
2016-Sep-18 00:00N 36°54' E 000°36'5317.7 050 / 101017.610.8 0.523.016.525.0
2016-Sep-17 21:00N 37°00' E 001°42'   040 / 71018.910.8 23.915.725.0

Dump ship's entire track history